createdAt,value
2022-08-17T00:01:00.626Z,6.12
2022-08-17T00:02:21.252Z,10.13
2022-08-17T00:03:40.904Z,8.18
2022-08-17T00:04:48.432Z,7.50
2022-08-17T00:06:08.790Z,6.20
2022-08-17T00:07:11.799Z,5.53
2022-08-17T00:08:16.796Z,10.15
2022-08-17T00:09:19.976Z,5.70
2022-08-17T00:10:26.897Z,8.27
2022-08-17T00:11:40.246Z,10.05
2022-08-17T00:12:46.819Z,7.47
2022-08-17T00:13:55.142Z,14.57
2022-08-17T00:14:59.332Z,7.65
2022-08-17T00:16:06.855Z,11.82
2022-08-17T00:17:09.986Z,10.15
2022-08-17T00:19:06.241Z,8.05
2022-08-17T00:19:36.964Z,9.73
2022-08-17T00:20:40.018Z,8.68
2022-08-17T00:22:32.711Z,11.63
2022-08-17T00:23:17.421Z,8.15
2022-08-17T00:24:20.685Z,10.90
2022-08-17T00:25:23.678Z,8.32
2022-08-17T00:26:43.755Z,8.02
2022-08-17T00:27:51.650Z,9.68
2022-08-17T00:28:57.151Z,9.45
2022-08-17T00:30:00.097Z,9.93
2022-08-17T00:31:03.009Z,9.70
2022-08-17T00:33:11.806Z,6.25
2022-08-17T00:33:31.738Z,6.28
2022-08-17T00:34:37.771Z,7.57
2022-08-17T00:35:41.363Z,7.28
2022-08-17T00:36:44.308Z,9.35
2022-08-17T00:37:47.281Z,7.62
2022-08-17T00:38:51.579Z,8.88
2022-08-17T00:39:58.024Z,6.87
2022-08-17T00:41:14.066Z,7.82
2022-08-17T00:42:21.830Z,6.82
2022-08-17T00:43:42.308Z,8.52
2022-08-17T00:44:46.466Z,7.25
2022-08-17T00:45:50.205Z,6.93
2022-08-17T00:46:53.256Z,11.73
2022-08-17T00:47:56.151Z,9.98
2022-08-17T00:49:00.327Z,10.07
2022-08-17T00:50:05.514Z,9.65
2022-08-17T00:51:20.716Z,11.15
2022-08-17T00:52:28.936Z,7.15
2022-08-17T00:53:37.829Z,9.15
2022-08-17T00:54:43.740Z,7.53
2022-08-17T00:55:47.583Z,10.23
2022-08-17T00:56:58.936Z,7.32
2022-08-17T00:58:05.531Z,6.18
2022-08-17T00:59:12.634Z,6.85
2022-08-17T01:00:28.411Z,9.05
2022-08-17T01:01:32.986Z,9.32
2022-08-17T01:02:43.418Z,6.43
2022-08-17T01:03:46.422Z,8.38
2022-08-17T01:04:53.212Z,6.78
2022-08-17T01:05:59.123Z,9.55
2022-08-17T01:07:05.718Z,8.60
2022-08-17T01:08:13.592Z,7.20
2022-08-17T01:09:18.529Z,8.45
2022-08-17T01:10:59.690Z,7.05
2022-08-17T01:11:53.962Z,7.75
2022-08-17T01:12:57.083Z,7.43
2022-08-17T01:14:00.201Z,12.80
2022-08-17T01:15:07.041Z,11.45
2022-08-17T01:16:13.733Z,6.68
2022-08-17T01:17:17.019Z,9.93
2022-08-17T01:18:22.512Z,9.23
2022-08-17T01:19:31.323Z,7.40
2022-08-17T01:20:43.136Z,8.32
2022-08-17T01:22:09.411Z,7.45
2022-08-17T01:23:12.336Z,8.35
2022-08-17T01:24:24.071Z,9.40
2022-08-17T01:25:28.790Z,10.25
2022-08-17T01:26:33.497Z,7.05
2022-08-17T01:27:37.533Z,9.68
2022-08-17T01:28:54.807Z,7.90
2022-08-17T01:30:03.706Z,7.75
2022-08-17T01:31:09.080Z,9.35
2022-08-17T01:32:13.193Z,6.70
2022-08-17T01:33:16.322Z,7.57
2022-08-17T01:34:20.926Z,7.15
2022-08-17T01:35:23.991Z,9.20
2022-08-17T01:36:28.435Z,8.68
2022-08-17T01:37:41.218Z,10.40
2022-08-17T01:38:45.048Z,9.07
2022-08-17T01:39:54.185Z,16.35
2022-08-17T01:41:06.709Z,11.43
2022-08-17T01:42:25.260Z,9.32
2022-08-17T01:43:41.557Z,7.93
2022-08-17T01:44:44.674Z,8.45
2022-08-17T01:46:03.863Z,8.13
2022-08-17T01:47:07.007Z,7.90
2022-08-17T01:48:10.959Z,7.00
2022-08-17T01:49:13.997Z,6.72
2022-08-17T01:50:23.922Z,8.93
2022-08-17T01:51:33.490Z,11.23
2022-08-17T01:52:36.539Z,6.60
2022-08-17T01:53:45.757Z,8.00
2022-08-17T01:54:51.678Z,7.25
2022-08-17T01:55:59.384Z,7.55
2022-08-17T01:57:03.046Z,6.97
2022-08-17T01:58:10.293Z,11.40
2022-08-17T01:59:13.535Z,9.95
2022-08-17T02:00:18.830Z,9.10
2022-08-17T02:01:25.157Z,9.32
2022-08-17T02:02:31.224Z,9.63
2022-08-17T02:03:36.805Z,8.05
2022-08-17T02:04:39.761Z,9.02
2022-08-17T02:05:42.832Z,8.82
2022-08-17T02:06:53.090Z,7.68
2022-08-17T02:09:05.479Z,10.15
2022-08-17T02:10:16.746Z,8.65
2022-08-17T02:11:23.449Z,8.75
2022-08-17T02:12:39.236Z,10.02
2022-08-17T02:13:48.848Z,7.47
2022-08-17T02:15:01.032Z,8.45
2022-08-17T02:16:04.726Z,7.62
2022-08-17T02:17:07.763Z,7.47
2022-08-17T02:18:13.102Z,10.13
2022-08-17T02:19:17.225Z,9.52
2022-08-17T02:20:42.159Z,9.85
2022-08-17T02:21:45.607Z,7.10
2022-08-17T02:22:49.587Z,10.45
2022-08-17T02:23:54.056Z,13.07
2022-08-17T02:25:00.522Z,7.18
2022-08-17T02:26:05.766Z,6.55
2022-08-17T02:27:08.755Z,8.05
2022-08-17T02:28:12.621Z,10.30
2022-08-17T02:29:16.155Z,9.02
2022-08-17T02:30:59.287Z,6.45
2022-08-17T02:31:43.712Z,9.52
2022-08-17T02:32:46.749Z,6.90
2022-08-17T02:34:00.422Z,11.88
2022-08-17T02:35:09.240Z,12.13
2022-08-17T02:36:13.861Z,12.30
2022-08-17T02:37:18.533Z,13.73
2022-08-17T02:38:21.790Z,8.15
2022-08-17T02:39:24.825Z,10.63
2022-08-17T02:40:36.434Z,9.07
2022-08-17T02:41:41.188Z,7.87
2022-08-17T02:42:45.502Z,8.23
2022-08-17T02:43:48.419Z,8.43
2022-08-17T02:44:51.281Z,6.65
2022-08-17T02:45:54.699Z,8.27
2022-08-17T02:46:57.678Z,8.52
2022-08-17T02:48:00.777Z,6.05
2022-08-17T02:49:05.275Z,7.20
2022-08-17T02:50:10.235Z,8.02
2022-08-17T02:51:13.836Z,9.07
2022-08-17T02:52:16.860Z,7.32
2022-08-17T02:53:39.822Z,8.80
2022-08-17T02:54:42.840Z,8.23
2022-08-17T02:55:45.877Z,9.27
2022-08-17T02:56:48.899Z,7.57
2022-08-17T02:57:52.993Z,8.52
2022-08-17T02:58:56.033Z,7.43
2022-08-17T02:59:58.979Z,7.40
2022-08-17T03:01:02.062Z,7.65
2022-08-17T03:02:07.697Z,7.37
2022-08-17T03:03:13.884Z,8.23
2022-08-17T03:04:17.030Z,7.68
2022-08-17T03:05:22.351Z,8.77
2022-08-17T03:06:25.615Z,8.25
2022-08-17T03:07:28.545Z,9.65
2022-08-17T03:08:32.805Z,10.13
2022-08-17T03:09:35.727Z,9.10
2022-08-17T03:10:38.978Z,12.05
2022-08-17T03:11:41.891Z,9.45
2022-08-17T03:12:46.076Z,10.90
2022-08-17T03:13:48.919Z,10.85
2022-08-17T03:14:54.850Z,12.55
2022-08-17T03:15:57.978Z,10.02
2022-08-17T03:17:01.489Z,10.45
2022-08-17T03:18:04.772Z,13.88
2022-08-17T03:19:07.807Z,12.90
2022-08-17T03:20:11.715Z,12.98
2022-08-17T03:21:14.702Z,15.55
2022-08-17T03:22:36.276Z,8.38
2022-08-17T03:23:42.394Z,8.07
2022-08-17T03:24:45.180Z,11.05
2022-08-17T03:25:48.081Z,11.32
2022-08-17T03:26:56.370Z,11.35
2022-08-17T03:27:59.845Z,12.55
2022-08-17T03:29:06.711Z,12.13
2022-08-17T03:30:13.348Z,7.80
2022-08-17T03:31:18.803Z,15.88
2022-08-17T03:32:21.765Z,9.77
2022-08-17T03:33:24.732Z,8.52
2022-08-17T03:34:27.762Z,11.12
2022-08-17T03:35:37.861Z,9.18
2022-08-17T03:36:40.865Z,12.65
2022-08-17T03:37:43.769Z,10.90
2022-08-17T03:38:46.881Z,8.13
2022-08-17T03:39:51.757Z,11.35
2022-08-17T03:40:57.338Z,9.15
2022-08-17T03:42:32.262Z,8.15
2022-08-17T03:43:39.703Z,8.07
2022-08-17T03:44:42.700Z,8.85
2022-08-17T03:46:04.206Z,8.40
2022-08-17T03:47:27.674Z,11.65
2022-08-17T03:48:50.310Z,8.27
2022-08-17T03:50:25.379Z,13.70
2022-08-17T03:51:46.852Z,9.82
2022-08-17T03:53:09.248Z,7.25
2022-08-17T03:54:30.889Z,9.18
2022-08-17T03:55:52.312Z,8.05
2022-08-17T03:57:10.704Z,8.90
2022-08-17T03:58:15.200Z,7.87
2022-08-17T03:59:23.360Z,9.13
2022-08-17T04:00:29.004Z,8.90
2022-08-17T04:01:32.303Z,11.27
2022-08-17T04:02:36.357Z,9.23
2022-08-17T04:03:39.314Z,8.00
2022-08-17T04:04:42.278Z,9.35
2022-08-17T04:05:45.210Z,10.68
2022-08-17T04:06:48.438Z,9.07
2022-08-17T04:07:52.083Z,8.23
2022-08-17T04:08:56.056Z,8.90
2022-08-17T04:09:59.713Z,10.95
2022-08-17T04:11:02.687Z,10.77
2022-08-17T04:12:06.158Z,7.28
2022-08-17T04:13:10.482Z,9.15
2022-08-17T04:14:13.386Z,8.70
2022-08-17T04:15:17.026Z,10.55
2022-08-17T04:16:20.352Z,9.20
2022-08-17T04:17:29.644Z,7.40
2022-08-17T04:18:43.332Z,10.85
2022-08-17T04:19:46.326Z,10.38
2022-08-17T04:20:49.617Z,8.70
2022-08-17T04:21:52.609Z,8.15
2022-08-17T04:23:28.637Z,8.15
2022-08-17T04:24:33.285Z,9.90
2022-08-17T04:25:38.737Z,8.98
2022-08-17T04:26:54.054Z,9.75
2022-08-17T04:28:02.109Z,7.97
2022-08-17T04:29:05.097Z,10.35
2022-08-17T04:30:08.823Z,10.65
2022-08-17T04:31:13.887Z,8.48
2022-08-17T04:32:19.597Z,6.93
2022-08-17T04:33:45.664Z,8.20
2022-08-17T04:34:48.591Z,8.20
2022-08-17T04:35:54.427Z,8.38
2022-08-17T04:36:57.580Z,9.07
2022-08-17T04:38:00.860Z,9.27
2022-08-17T04:39:04.480Z,11.23
2022-08-17T04:40:27.549Z,7.43
2022-08-17T04:41:49.411Z,8.45
2022-08-17T04:43:23.582Z,8.32
2022-08-17T04:44:36.823Z,6.62
2022-08-17T04:45:51.223Z,9.35
2022-08-17T04:46:59.640Z,9.07
2022-08-17T04:48:06.743Z,8.95
2022-08-17T04:49:11.597Z,9.50
2022-08-17T04:50:14.494Z,8.25
2022-08-17T04:51:28.310Z,9.30
2022-08-17T04:52:43.249Z,8.77
2022-08-17T04:53:54.618Z,8.80
2022-08-17T04:54:57.945Z,9.27
2022-08-17T04:56:01.166Z,9.50
2022-08-17T04:57:04.161Z,7.87
2022-08-17T04:58:08.034Z,8.02
2022-08-17T04:59:17.941Z,9.43
2022-08-17T05:00:21.559Z,7.60
2022-08-17T05:01:26.499Z,8.45
2022-08-17T05:02:29.460Z,9.05
2022-08-17T05:03:35.896Z,8.68
2022-08-17T05:04:42.066Z,7.70
2022-08-17T05:05:49.997Z,8.60
2022-08-17T05:06:54.732Z,6.72
2022-08-17T05:08:00.136Z,7.82
2022-08-17T05:09:03.741Z,7.25
2022-08-17T05:10:07.298Z,7.75
2022-08-17T05:11:10.824Z,7.05
2022-08-17T05:12:16.382Z,6.30
2022-08-17T05:13:23.140Z,7.72
2022-08-17T05:14:32.966Z,7.47
2022-08-17T05:15:44.888Z,7.70
2022-08-17T05:16:49.634Z,7.55
2022-08-17T05:17:52.599Z,6.37
2022-08-17T05:18:57.006Z,7.97
2022-08-17T05:19:59.850Z,7.37
2022-08-17T05:21:03.194Z,6.97
2022-08-17T05:22:06.733Z,9.55
2022-08-17T05:23:13.073Z,6.18
2022-08-17T05:24:38.545Z,15.40
2022-08-17T05:25:42.307Z,6.90
2022-08-17T05:26:50.230Z,6.70
2022-08-17T05:27:55.423Z,7.00
2022-08-17T05:29:00.440Z,8.13
2022-08-17T05:30:06.327Z,6.40
2022-08-17T05:31:09.565Z,6.70
2022-08-17T05:32:37.773Z,7.32
2022-08-17T05:33:46.296Z,5.97
2022-08-17T05:34:52.870Z,7.90
2022-08-17T05:35:58.696Z,5.95
2022-08-17T05:37:01.675Z,6.68
2022-08-17T05:38:05.776Z,9.05
2022-08-17T05:39:08.910Z,6.95
2022-08-17T05:40:26.742Z,7.78
2022-08-17T05:41:35.853Z,7.12
2022-08-17T05:42:38.849Z,7.60
2022-08-17T05:43:43.003Z,8.02
2022-08-17T05:44:45.934Z,6.97
2022-08-17T05:46:22.786Z,8.75
2022-08-17T05:47:27.174Z,8.70
2022-08-17T05:48:41.965Z,6.45
2022-08-17T05:49:44.925Z,5.95
2022-08-17T05:51:04.212Z,10.85
2022-08-17T05:52:40.367Z,6.43
2022-08-17T05:53:53.030Z,8.40
2022-08-17T05:55:14.366Z,7.97
2022-08-17T05:56:32.286Z,8.15
2022-08-17T05:57:39.883Z,7.40
2022-08-17T05:59:15.745Z,7.15
2022-08-17T06:00:36.394Z,5.90
2022-08-17T06:01:51.517Z,8.40
2022-08-17T06:03:12.899Z,6.65
2022-08-17T06:04:31.054Z,6.22
2022-08-17T06:05:55.975Z,8.15
2022-08-17T06:07:14.240Z,6.72
2022-08-17T06:08:46.288Z,7.85
2022-08-17T06:10:02.509Z,6.62
2022-08-17T06:11:19.780Z,7.00
2022-08-17T06:12:45.153Z,6.70
2022-08-17T06:13:53.420Z,7.57
2022-08-17T06:15:26.518Z,7.20
2022-08-17T06:16:41.387Z,6.95
2022-08-17T06:17:44.886Z,6.72
2022-08-17T06:19:02.739Z,6.55
2022-08-17T06:20:11.945Z,9.73
2022-08-17T06:21:18.530Z,5.97
2022-08-17T06:22:33.636Z,5.65
2022-08-17T06:23:51.034Z,6.65
2022-08-17T06:25:20.129Z,6.05
2022-08-17T06:26:37.332Z,7.53
2022-08-17T06:27:45.716Z,6.32
2022-08-17T06:29:08.208Z,6.93
2022-08-17T06:30:26.490Z,5.72
2022-08-17T06:31:35.184Z,6.40
2022-08-17T06:32:41.607Z,5.30
2022-08-17T06:33:47.716Z,7.65
2022-08-17T06:34:51.806Z,5.70
2022-08-17T06:36:06.188Z,7.37
2022-08-17T06:37:21.545Z,8.93
2022-08-17T06:38:54.676Z,8.55
2022-08-17T06:40:28.442Z,9.50
2022-08-17T06:41:38.170Z,8.02
2022-08-17T06:43:09.115Z,6.43
2022-08-17T06:44:43.312Z,5.80
2022-08-17T06:45:49.559Z,5.22
2022-08-17T06:47:02.602Z,6.93
2022-08-17T06:48:35.307Z,6.25
2022-08-17T06:50:19.443Z,6.85
2022-08-17T06:51:40.923Z,6.47
2022-08-17T06:52:54.267Z,5.75
2022-08-17T06:54:17.336Z,6.07
2022-08-17T06:55:28.082Z,7.53
2022-08-17T06:56:53.119Z,7.75
2022-08-17T06:58:05.895Z,6.15
2022-08-17T06:59:25.657Z,10.57
2022-08-17T07:00:33.870Z,7.57
2022-08-17T07:04:14.040Z,8.70
2022-08-17T07:05:20.052Z,5.70
2022-08-17T07:06:27.424Z,6.35
2022-08-17T07:07:49.327Z,6.22
2022-08-17T07:08:58.423Z,6.70
2022-08-17T07:10:03.176Z,6.05
2022-08-17T07:11:14.562Z,6.20
2022-08-17T07:12:28.015Z,6.15
2022-08-17T07:13:54.147Z,8.73
2022-08-17T07:15:11.807Z,8.07
2022-08-17T07:16:25.701Z,7.37
2022-08-17T07:17:46.600Z,7.00
2022-08-17T07:18:53.363Z,7.15
2022-08-17T07:20:11.828Z,7.00
2022-08-17T07:21:37.200Z,6.90
2022-08-17T07:23:13.798Z,8.07
2022-08-17T07:24:37.537Z,6.22
2022-08-17T07:25:40.620Z,8.23
2022-08-17T07:26:43.503Z,8.70
2022-08-17T07:27:53.188Z,7.57
2022-08-17T07:28:57.591Z,6.62
2022-08-17T07:30:10.991Z,6.20
2022-08-17T07:31:17.732Z,7.12
2022-08-17T07:32:32.092Z,7.65
2022-08-17T07:33:37.066Z,6.03
2022-08-17T07:35:16.999Z,6.00
2022-08-17T07:36:29.819Z,6.50
2022-08-17T07:37:34.573Z,6.85
2022-08-17T07:38:59.762Z,10.93
2022-08-17T07:40:29.838Z,6.53
2022-08-17T07:41:59.102Z,7.68
2022-08-17T07:43:24.461Z,6.97
2022-08-17T07:44:27.661Z,7.35
2022-08-17T07:45:37.772Z,7.72
2022-08-17T07:47:17.946Z,6.62
2022-08-17T07:48:27.209Z,8.27
2022-08-17T07:49:37.318Z,7.25
2022-08-17T07:50:42.035Z,6.12
2022-08-17T07:51:52.720Z,8.57
2022-08-17T07:52:55.733Z,9.60
2022-08-17T07:54:22.659Z,7.12
2022-08-17T07:55:35.097Z,7.55
2022-08-17T07:57:26.624Z,6.95
2022-08-17T07:58:35.029Z,9.60
2022-08-17T07:59:43.312Z,6.10
2022-08-17T08:00:47.044Z,11.35
2022-08-17T08:02:01.146Z,8.65
2022-08-17T08:03:34.266Z,6.00
2022-08-17T08:05:02.136Z,7.57
2022-08-17T08:06:21.045Z,6.35
2022-08-17T08:07:25.740Z,5.68
2022-08-17T08:08:36.249Z,8.25
2022-08-17T08:09:47.424Z,6.28
2022-08-17T08:11:15.697Z,6.32
2022-08-17T08:12:42.606Z,6.47
2022-08-17T08:13:49.836Z,11.63
2022-08-17T08:14:58.268Z,8.60
2022-08-17T08:16:29.925Z,7.53
2022-08-17T08:17:38.449Z,5.75
2022-08-17T08:18:56.067Z,6.95
2022-08-17T08:20:01.255Z,5.60
2022-08-17T08:21:39.658Z,6.20
2022-08-17T08:22:45.927Z,7.75
2022-08-17T08:24:16.666Z,5.57
2022-08-17T08:25:25.643Z,5.72
2022-08-17T08:26:37.757Z,7.20
2022-08-17T08:27:57.675Z,7.15
2022-08-17T08:29:19.444Z,5.60
2022-08-17T08:30:22.875Z,6.15
2022-08-17T08:32:03.874Z,6.82
2022-08-17T08:33:20.459Z,6.62
2022-08-17T08:35:03.007Z,5.50
2022-08-17T08:36:11.815Z,5.57
2022-08-17T08:37:52.513Z,5.35
2022-08-17T08:40:30.288Z,7.82
2022-08-17T08:41:54.903Z,7.18
2022-08-17T08:43:29.108Z,9.38
2022-08-17T08:45:00.853Z,4.78
2022-08-17T08:46:20.240Z,6.05
2022-08-17T08:47:42.100Z,4.82
2022-08-17T08:49:12.648Z,5.45
2022-08-17T08:50:52.545Z,4.70
2022-08-17T08:52:01.430Z,4.35
2022-08-17T08:53:16.179Z,6.00
2022-08-17T08:54:41.038Z,6.53
2022-08-17T08:56:02.804Z,4.85
2022-08-17T08:57:25.650Z,5.68
2022-08-17T08:58:42.079Z,4.50
2022-08-17T09:00:14.950Z,6.00
2022-08-17T09:01:28.246Z,5.07
2022-08-17T09:02:53.056Z,4.55
2022-08-17T09:04:25.011Z,5.35
2022-08-17T09:05:50.342Z,4.45
2022-08-17T09:07:15.762Z,4.57
2022-08-17T09:08:32.541Z,4.72
2022-08-17T09:09:49.952Z,5.75
2022-08-17T09:11:16.821Z,4.40
2022-08-17T09:12:55.238Z,5.90
2022-08-17T09:14:07.221Z,4.78
2022-08-17T09:15:35.179Z,4.70
2022-08-17T09:16:47.345Z,5.22
2022-08-17T09:18:59.121Z,5.45
2022-08-17T09:19:50.872Z,5.43
2022-08-17T09:21:01.838Z,10.25
2022-08-17T09:22:32.664Z,7.05
2022-08-17T09:23:35.510Z,5.10
2022-08-17T09:24:46.848Z,5.03
2022-08-17T09:27:31.052Z,4.82
2022-08-17T09:28:39.034Z,6.55
2022-08-17T09:29:49.355Z,7.18
2022-08-17T09:30:56.509Z,5.87
2022-08-17T09:32:04.024Z,5.18
2022-08-17T09:33:09.416Z,10.77
2022-08-17T09:34:17.454Z,7.37
2022-08-17T09:35:36.588Z,6.35
2022-08-17T09:37:11.201Z,5.07
2022-08-17T09:38:23.161Z,5.85
2022-08-17T09:39:36.721Z,5.90
2022-08-17T09:41:01.932Z,4.62
2022-08-17T09:42:10.926Z,5.62
2022-08-17T09:43:32.194Z,5.30
2022-08-17T09:44:49.474Z,6.30
2022-08-17T09:45:58.207Z,4.87
2022-08-17T09:48:02.806Z,4.85
2022-08-17T09:49:43.101Z,6.60
2022-08-17T09:51:21.976Z,5.30
2022-08-17T09:52:28.772Z,5.37
2022-08-17T09:53:32.299Z,5.22
2022-08-17T09:54:40.530Z,5.25
2022-08-17T09:56:10.195Z,6.57
2022-08-17T09:57:33.531Z,5.00
2022-08-17T09:59:17.176Z,5.70
2022-08-17T10:00:37.488Z,5.00
2022-08-17T10:01:57.553Z,6.10
2022-08-17T10:03:38.973Z,4.18
2022-08-17T10:04:54.758Z,4.05
2022-08-17T10:06:24.812Z,4.90
2022-08-17T10:07:57.494Z,4.50
2022-08-17T10:09:35.768Z,6.28
2022-08-17T10:10:52.265Z,5.37
2022-08-17T10:12:30.135Z,4.62
2022-08-17T10:13:54.259Z,4.43
2022-08-17T10:15:17.371Z,4.37
2022-08-17T10:16:52.455Z,4.35
2022-08-17T10:18:20.230Z,4.65
2022-08-17T10:19:40.088Z,4.35
2022-08-17T10:21:19.276Z,4.35
2022-08-17T10:22:53.224Z,5.22
2022-08-17T10:24:28.194Z,5.18
2022-08-17T10:25:55.753Z,4.68
2022-08-17T10:27:02.064Z,5.25
2022-08-17T10:28:12.949Z,5.80
2022-08-17T10:29:46.222Z,4.82
2022-08-17T10:31:16.595Z,4.93
2022-08-17T10:32:34.380Z,4.53
2022-08-17T10:33:57.997Z,3.92
2022-08-17T10:35:34.301Z,4.22
2022-08-17T10:37:00.397Z,4.78
2022-08-17T10:38:34.169Z,4.25
2022-08-17T10:39:52.569Z,5.78
2022-08-17T10:41:40.317Z,4.30
2022-08-17T10:43:12.951Z,7.50
2022-08-17T10:44:48.643Z,3.67
2022-08-17T10:46:30.950Z,4.35
2022-08-17T10:48:06.283Z,3.35
2022-08-17T10:49:18.505Z,3.60
2022-08-17T10:50:56.338Z,4.65
2022-08-17T10:52:20.539Z,4.50
2022-08-17T10:53:32.629Z,5.22
2022-08-17T10:55:09.241Z,4.20
2022-08-17T10:56:15.926Z,4.57
2022-08-17T10:57:27.524Z,3.90
2022-08-17T10:58:46.268Z,3.97
2022-08-17T10:59:51.766Z,8.20
2022-08-17T11:00:54.603Z,4.87
2022-08-17T11:02:18.652Z,4.82
2022-08-17T11:03:24.979Z,5.20
2022-08-17T11:04:37.078Z,4.28
2022-08-17T11:06:22.919Z,4.10
2022-08-17T11:07:58.999Z,5.07
2022-08-17T11:09:44.133Z,4.60
2022-08-17T11:10:55.027Z,4.97
2022-08-17T11:12:38.811Z,4.72
2022-08-17T11:14:07.107Z,4.22
2022-08-17T11:15:20.192Z,4.78
2022-08-17T11:16:42.007Z,7.78
2022-08-17T11:17:50.510Z,7.78
2022-08-17T11:18:53.799Z,4.82
2022-08-17T11:20:14.826Z,8.27
2022-08-17T11:21:43.987Z,8.65
2022-08-17T11:23:18.639Z,5.62
2022-08-17T11:24:43.443Z,7.82
2022-08-17T11:25:55.755Z,7.62
2022-08-17T11:27:14.142Z,4.80
2022-08-17T11:28:34.680Z,4.87
2022-08-17T11:30:02.246Z,5.85
2022-08-17T11:31:38.561Z,5.00
2022-08-17T11:32:54.689Z,5.03
2022-08-17T11:34:04.876Z,5.30
2022-08-17T11:35:14.945Z,8.38
2022-08-17T11:36:34.499Z,4.90
2022-08-17T11:37:53.311Z,4.43
2022-08-17T11:39:23.208Z,4.93
2022-08-17T11:40:54.238Z,4.62
2022-08-17T11:42:06.720Z,5.97
2022-08-17T11:43:27.670Z,4.68
2022-08-17T11:44:52.772Z,6.25
2022-08-17T11:46:14.018Z,5.18
2022-08-17T11:48:26.735Z,4.43
2022-08-17T11:50:00.424Z,7.60
2022-08-17T11:51:28.375Z,5.00
2022-08-17T11:52:45.953Z,7.43
2022-08-17T11:53:50.285Z,7.78
2022-08-17T11:54:53.171Z,5.47
2022-08-17T11:55:59.111Z,6.37
2022-08-17T11:57:28.163Z,5.43
2022-08-17T11:58:38.768Z,4.65
2022-08-17T11:59:46.283Z,6.75
2022-08-17T12:01:02.146Z,4.90
2022-08-17T12:02:20.190Z,5.32
2022-08-17T12:03:53.940Z,4.87
2022-08-17T12:05:21.489Z,4.68
2022-08-17T12:06:30.371Z,6.95
2022-08-17T12:07:41.944Z,3.53
2022-08-17T12:08:55.338Z,3.78
2022-08-17T12:10:00.781Z,8.43
2022-08-17T12:11:10.222Z,4.62
2022-08-17T12:12:20.423Z,4.10
2022-08-17T12:13:30.613Z,5.00
2022-08-17T12:15:11.505Z,5.57
2022-08-17T12:16:19.771Z,4.10
2022-08-17T12:17:39.237Z,8.30
2022-08-17T12:18:59.558Z,4.25
2022-08-17T12:20:15.823Z,5.68
2022-08-17T12:21:23.454Z,4.00
2022-08-17T12:22:44.558Z,3.83
2022-08-17T12:23:51.997Z,3.37
2022-08-17T12:24:55.909Z,4.35
2022-08-17T12:26:19.679Z,7.12
2022-08-17T12:28:05.521Z,3.92
2022-08-17T12:29:35.889Z,4.22
2022-08-17T12:30:41.582Z,4.10
2022-08-17T12:31:47.735Z,5.50
2022-08-17T12:32:51.300Z,4.28
2022-08-17T12:33:54.899Z,4.78
2022-08-17T12:34:57.926Z,6.05
2022-08-17T12:36:07.759Z,4.85
2022-08-17T12:37:18.865Z,4.00
2022-08-17T12:38:32.545Z,4.32
2022-08-17T12:39:39.170Z,4.37
2022-08-17T12:40:55.438Z,4.55
2022-08-17T12:42:02.824Z,3.40
2022-08-17T12:43:08.820Z,3.58
2022-08-17T12:44:12.459Z,3.35
2022-08-17T12:45:29.623Z,3.25
2022-08-17T12:46:46.777Z,5.55
2022-08-17T12:48:04.630Z,4.55
2022-08-17T12:49:16.388Z,4.90
2022-08-17T12:50:29.159Z,5.37
2022-08-17T12:51:34.427Z,3.45
2022-08-17T12:52:40.590Z,4.72
2022-08-17T12:53:53.367Z,3.62
2022-08-17T12:55:06.505Z,6.53
2022-08-17T12:56:13.931Z,4.87
2022-08-17T12:57:46.518Z,3.92
2022-08-17T12:58:56.562Z,6.18
2022-08-17T13:00:11.142Z,3.45
2022-08-17T13:01:17.069Z,4.28
2022-08-17T13:02:28.631Z,5.37
2022-08-17T13:04:46.618Z,4.62
2022-08-17T13:06:09.201Z,3.67
2022-08-17T13:07:14.631Z,3.50
2022-08-17T13:08:29.115Z,3.97
2022-08-17T13:09:40.123Z,4.87
2022-08-17T13:10:53.601Z,6.53
2022-08-17T13:12:00.530Z,6.18
2022-08-17T13:13:17.875Z,6.47
2022-08-17T13:14:22.299Z,4.28
2022-08-17T13:15:32.463Z,4.22
2022-08-17T13:16:36.617Z,4.05
2022-08-17T13:17:56.826Z,3.87
2022-08-17T13:19:19.062Z,3.78
2022-08-17T13:22:01.540Z,3.80
2022-08-17T13:23:12.640Z,5.15
2022-08-17T13:24:17.107Z,4.40
2022-08-17T13:25:20.043Z,5.65
2022-08-17T13:26:29.828Z,3.03
2022-08-17T13:27:34.218Z,4.45
2022-08-17T13:28:38.341Z,4.80
2022-08-17T13:29:53.984Z,3.62
2022-08-17T13:31:21.557Z,4.53
2022-08-17T13:32:37.729Z,3.47
2022-08-17T13:33:45.087Z,3.62
2022-08-17T13:35:14.993Z,3.55
2022-08-17T13:36:33.724Z,4.18
2022-08-17T13:37:37.714Z,5.60
2022-08-17T13:38:49.817Z,3.53
2022-08-17T13:40:14.226Z,4.75
2022-08-17T13:41:33.910Z,2.90
2022-08-17T13:42:51.968Z,3.47
2022-08-17T13:43:56.264Z,2.55
2022-08-17T13:45:00.426Z,2.90
2022-08-17T13:46:34.342Z,2.72
2022-08-17T13:47:37.295Z,2.83
2022-08-17T13:48:42.259Z,3.12
2022-08-17T13:49:49.467Z,3.35
2022-08-17T13:50:55.518Z,3.42
2022-08-17T13:51:58.960Z,5.47
2022-08-17T13:53:18.620Z,3.12
2022-08-17T13:54:34.659Z,3.87
2022-08-17T13:55:37.844Z,3.87
2022-08-17T13:56:50.330Z,2.55
2022-08-17T13:58:04.211Z,3.50
2022-08-17T13:59:15.962Z,3.72
2022-08-17T14:00:37.283Z,4.15
2022-08-17T14:01:52.833Z,2.45
2022-08-17T14:02:58.563Z,3.75
2022-08-17T14:04:28.210Z,3.37
2022-08-17T14:05:32.600Z,4.10
2022-08-17T14:06:52.203Z,3.03
2022-08-17T14:08:06.616Z,3.60
2022-08-17T14:09:10.264Z,3.10
2022-08-17T14:10:17.687Z,6.22
2022-08-17T14:11:22.546Z,3.72
2022-08-17T14:12:27.924Z,4.30
2022-08-17T14:13:32.454Z,3.62
2022-08-17T14:14:35.485Z,4.62
2022-08-17T14:15:54.562Z,5.50
2022-08-17T14:16:59.511Z,2.83
2022-08-17T14:18:02.538Z,3.87
2022-08-17T14:19:06.267Z,3.12
2022-08-17T14:20:12.542Z,4.15
2022-08-17T14:21:15.532Z,3.20
2022-08-17T14:22:27.256Z,3.58
2022-08-17T14:23:32.239Z,4.40
2022-08-17T14:24:44.494Z,5.72
2022-08-17T14:25:48.141Z,3.33
2022-08-17T14:26:55.030Z,2.95
2022-08-17T14:27:58.366Z,3.97
2022-08-17T14:29:02.038Z,4.07
2022-08-17T14:30:08.295Z,5.72
2022-08-17T14:31:12.111Z,3.17
2022-08-17T14:32:22.265Z,5.32
2022-08-17T14:33:25.271Z,5.32
2022-08-17T14:34:28.209Z,4.20
2022-08-17T14:35:31.135Z,5.05
2022-08-17T14:36:34.492Z,4.07
2022-08-17T14:37:37.980Z,4.43
2022-08-17T14:38:41.128Z,6.07
2022-08-17T14:39:44.320Z,4.85
2022-08-17T14:40:49.446Z,4.65
2022-08-17T14:41:53.297Z,6.57
2022-08-17T14:42:57.918Z,4.25
2022-08-17T14:44:00.841Z,5.30
2022-08-17T14:45:06.380Z,3.58
2022-08-17T14:46:29.361Z,3.47
2022-08-17T14:47:37.150Z,6.10
2022-08-17T14:48:41.201Z,3.25
2022-08-17T14:49:47.718Z,3.37
2022-08-17T14:50:50.850Z,3.95
2022-08-17T14:51:54.213Z,4.37
2022-08-17T14:52:58.123Z,3.95
2022-08-17T14:54:02.494Z,5.22
2022-08-17T14:55:06.837Z,3.30
2022-08-17T14:56:09.817Z,3.10
2022-08-17T14:57:33.179Z,3.50
2022-08-17T14:58:37.159Z,3.42
2022-08-17T14:59:41.579Z,5.20
2022-08-17T15:00:44.635Z,4.30
2022-08-17T15:01:48.300Z,7.18
2022-08-17T15:02:57.043Z,7.70
2022-08-17T15:04:01.204Z,4.03
2022-08-17T15:05:08.574Z,4.05
2022-08-17T15:06:14.965Z,4.25
2022-08-17T15:07:20.296Z,4.37
2022-08-17T15:08:30.660Z,2.80
2022-08-17T15:09:35.765Z,2.78
2022-08-17T15:10:39.811Z,3.55
2022-08-17T15:11:43.406Z,3.20
2022-08-17T15:12:46.584Z,3.33
2022-08-17T15:13:53.096Z,3.85
2022-08-17T15:14:57.322Z,3.20
2022-08-17T15:16:04.074Z,3.35
2022-08-17T15:17:07.228Z,3.42
2022-08-17T15:18:10.804Z,2.78
2022-08-17T15:19:20.033Z,2.87
2022-08-17T15:20:27.808Z,5.87
2022-08-17T15:21:31.313Z,5.25
2022-08-17T15:22:34.307Z,5.65
2022-08-17T15:23:41.037Z,3.37
2022-08-17T15:24:46.710Z,4.30
2022-08-17T15:25:52.806Z,2.87
2022-08-17T15:26:56.026Z,3.62
2022-08-17T15:28:00.702Z,3.25
2022-08-17T15:29:04.153Z,7.00
2022-08-17T15:30:08.293Z,5.75
2022-08-17T15:31:11.860Z,5.25
2022-08-17T15:32:29.953Z,5.55
2022-08-17T15:33:33.387Z,5.78
2022-08-17T15:34:36.863Z,5.75
2022-08-17T15:35:40.922Z,3.75
2022-08-17T15:36:49.426Z,3.53
2022-08-17T15:37:53.175Z,3.42
2022-08-17T15:38:58.971Z,2.80
2022-08-17T15:40:02.110Z,5.47
2022-08-17T15:41:08.857Z,4.28
2022-08-17T15:42:12.080Z,4.05
2022-08-17T15:43:23.291Z,3.30
2022-08-17T15:44:32.605Z,3.58
2022-08-17T15:45:39.009Z,4.30
2022-08-17T15:46:42.054Z,3.22
2022-08-17T15:47:45.368Z,3.83
2022-08-17T15:48:58.501Z,4.37
2022-08-17T15:51:04.595Z,3.22
2022-08-17T15:52:20.367Z,4.80
2022-08-17T15:53:23.298Z,4.68
2022-08-17T15:54:26.451Z,4.47
2022-08-17T15:55:38.666Z,4.22
2022-08-17T15:56:42.156Z,4.95
2022-08-17T15:57:45.227Z,4.18
2022-08-17T15:58:49.180Z,3.17
2022-08-17T15:59:58.562Z,3.75
2022-08-17T16:01:14.792Z,3.67
2022-08-17T16:03:45.712Z,4.95
2022-08-17T16:04:26.624Z,3.97
2022-08-17T16:05:29.979Z,2.72
2022-08-17T16:06:34.845Z,4.32
2022-08-17T16:07:38.740Z,3.75
2022-08-17T16:08:45.422Z,4.72
2022-08-17T16:09:50.932Z,4.75
2022-08-17T16:10:55.566Z,2.90
2022-08-17T16:12:02.234Z,3.42
2022-08-17T16:13:05.362Z,2.85
2022-08-17T16:14:20.137Z,3.10